createdAt,value
2023-02-12T00:01:35.291Z,68.63
2023-02-12T00:04:05.230Z,68.78
2023-02-12T00:06:33.736Z,69.35
2023-02-12T00:09:02.214Z,69.98
2023-02-12T00:11:31.536Z,70.09
2023-02-12T00:14:00.507Z,69.70
2023-02-12T00:16:30.885Z,69.56
2023-02-12T00:19:00.910Z,69.49
2023-02-12T00:21:30.765Z,69.84
2023-02-12T00:23:59.716Z,69.21
2023-02-12T00:26:28.093Z,69.15
2023-02-12T00:28:57.317Z,69.08
2023-02-12T00:31:29.163Z,67.97
2023-02-12T00:33:57.805Z,68.37
2023-02-12T00:36:30.914Z,67.73
2023-02-12T00:38:59.871Z,68.63
2023-02-12T00:41:28.809Z,67.82
2023-02-12T00:43:57.540Z,67.59
2023-02-12T00:46:26.030Z,68.39
2023-02-12T00:48:54.437Z,67.94
2023-02-12T00:51:23.109Z,68.74
2023-02-12T00:53:52.874Z,68.38
2023-02-12T00:56:21.281Z,68.74
2023-02-12T00:58:49.638Z,67.93
2023-02-12T01:01:18.847Z,68.12
2023-02-12T01:03:47.327Z,67.68
2023-02-12T01:06:15.758Z,67.64
2023-02-12T01:08:44.139Z,67.89
2023-02-12T01:11:14.965Z,68.34
2023-02-12T01:13:43.346Z,68.22
2023-02-12T01:16:17.723Z,67.69
2023-02-12T01:18:47.595Z,68.00
2023-02-12T01:21:19.174Z,68.83
2023-02-12T01:23:48.818Z,67.71
2023-02-12T01:26:20.365Z,67.70
2023-02-12T01:28:53.217Z,66.51
2023-02-12T01:31:25.445Z,67.17
2023-02-12T01:33:56.578Z,67.07
2023-02-12T01:36:26.077Z,67.07
2023-02-12T01:38:54.643Z,66.84
2023-02-12T01:41:28.414Z,66.59
2023-02-12T01:44:14.175Z,66.58
2023-02-12T01:46:44.142Z,66.98
2023-02-12T01:49:18.993Z,66.68
2023-02-12T01:51:51.031Z,66.26
2023-02-12T01:54:22.013Z,66.87
2023-02-12T01:56:51.830Z,66.11
2023-02-12T01:59:22.231Z,66.38
2023-02-12T02:01:50.748Z,65.52
2023-02-12T02:04:24.762Z,65.82
2023-02-12T02:06:58.443Z,66.06
2023-02-12T02:09:28.234Z,66.02
2023-02-12T02:12:15.663Z,66.42
2023-02-12T02:14:46.204Z,66.08
2023-02-12T02:17:35.557Z,65.29
2023-02-12T02:20:43.996Z,65.88
2023-02-12T02:23:56.788Z,65.63
2023-02-12T02:26:51.682Z,65.29
2023-02-12T02:29:50.277Z,65.22
2023-02-12T02:32:26.032Z,65.37
2023-02-12T02:35:01.599Z,64.96
2023-02-12T02:37:37.368Z,65.10
2023-02-12T02:40:16.071Z,65.58
2023-02-12T02:42:52.870Z,64.53
2023-02-12T02:45:29.272Z,64.77
2023-02-12T02:48:05.049Z,64.55
2023-02-12T02:50:39.822Z,64.71
2023-02-12T02:53:14.454Z,64.64
2023-02-12T02:55:48.239Z,65.00
2023-02-12T02:58:21.954Z,65.24
2023-02-12T03:00:57.304Z,64.97
2023-02-12T03:03:33.721Z,64.80
2023-02-12T03:06:09.403Z,65.19
2023-02-12T03:08:43.104Z,64.65
2023-02-12T03:11:16.810Z,65.24
2023-02-12T03:13:50.233Z,64.40
2023-02-12T03:16:23.350Z,63.94
2023-02-12T03:18:57.147Z,64.42
2023-02-12T03:21:32.605Z,63.79
2023-02-12T03:24:09.076Z,63.42
2023-02-12T03:26:46.505Z,63.63
2023-02-12T03:29:15.203Z,63.30
2023-02-12T03:31:57.468Z,63.06
2023-02-12T03:34:36.531Z,62.67
2023-02-12T03:37:11.314Z,62.81
2023-02-12T03:39:50.803Z,63.47
2023-02-12T03:42:33.159Z,63.33
2023-02-12T03:45:10.481Z,62.82
2023-02-12T03:47:47.353Z,62.87
2023-02-12T03:50:23.248Z,63.11
2023-02-12T03:52:52.512Z,63.25
2023-02-12T03:55:22.039Z,63.54
2023-02-12T03:57:59.038Z,63.42
2023-02-12T04:00:28.532Z,63.40
2023-02-12T04:02:57.900Z,63.62
2023-02-12T04:05:29.087Z,63.21
2023-02-12T04:08:00.151Z,63.37
2023-02-12T04:10:36.941Z,63.21
2023-02-12T04:13:19.472Z,63.00
2023-02-12T04:16:14.257Z,62.55
2023-02-12T04:18:46.066Z,62.64
2023-02-12T04:21:33.290Z,63.08
2023-02-12T04:24:12.500Z,62.52
2023-02-12T04:26:50.907Z,62.80
2023-02-12T04:29:27.987Z,62.64
2023-02-12T04:32:05.347Z,62.75
2023-02-12T04:34:41.029Z,62.87
2023-02-12T04:37:18.164Z,62.42
2023-02-12T04:39:47.327Z,62.76
2023-02-12T04:42:15.845Z,63.03
2023-02-12T04:44:46.206Z,62.93
2023-02-12T04:47:15.611Z,62.54
2023-02-12T04:49:44.196Z,63.12
2023-02-12T04:52:13.949Z,63.03
2023-02-12T04:54:42.281Z,63.22
2023-02-12T04:57:11.043Z,63.06
2023-02-12T04:59:39.392Z,62.96
2023-02-12T05:02:07.757Z,62.69
2023-02-12T05:04:36.156Z,63.03
2023-02-12T05:07:04.615Z,62.64
2023-02-12T05:09:34.397Z,63.01
2023-02-12T05:12:02.767Z,62.89
2023-02-12T05:14:32.000Z,62.71
2023-02-12T05:17:00.315Z,62.79
2023-02-12T05:19:28.792Z,62.70
2023-02-12T05:21:57.157Z,62.90
2023-02-12T05:24:25.949Z,62.58
2023-02-12T05:26:56.080Z,62.64
2023-02-12T05:29:24.686Z,62.45
2023-02-12T05:31:53.254Z,62.23
2023-02-12T05:34:21.656Z,62.75
2023-02-12T05:36:50.039Z,62.42
2023-02-12T05:39:18.538Z,63.07
2023-02-12T05:41:46.902Z,63.21
2023-02-12T05:44:16.685Z,63.40
2023-02-12T05:46:45.519Z,62.93
2023-02-12T05:49:14.036Z,63.73
2023-02-12T05:51:42.469Z,63.83
2023-02-12T05:54:12.205Z,63.49
2023-02-12T05:56:45.757Z,63.73
2023-02-12T05:59:18.836Z,62.99
2023-02-12T06:01:50.197Z,63.04
2023-02-12T06:04:23.582Z,63.26
2023-02-12T06:06:52.651Z,62.73
2023-02-12T06:09:21.319Z,63.24
2023-02-12T06:11:49.900Z,63.04
2023-02-12T06:14:21.197Z,63.06
2023-02-12T06:16:52.831Z,62.47
2023-02-12T06:19:22.203Z,62.43
2023-02-12T06:21:51.250Z,62.10
2023-02-12T06:24:19.936Z,62.06
2023-02-12T06:26:51.948Z,62.10
2023-02-12T06:29:22.489Z,62.58
2023-02-12T06:31:51.074Z,62.29
2023-02-12T06:34:19.517Z,61.84
2023-02-12T06:36:49.084Z,61.91
2023-02-12T06:39:18.957Z,62.02
2023-02-12T06:41:47.544Z,61.97
2023-02-12T06:44:16.106Z,62.38
2023-02-12T06:46:46.149Z,62.12
2023-02-12T06:49:16.283Z,62.33
2023-02-12T06:51:44.764Z,62.53
2023-02-12T06:54:16.407Z,62.01
2023-02-12T06:56:45.551Z,61.50
2023-02-12T06:59:16.400Z,61.93
2023-02-12T07:01:46.282Z,61.78
2023-02-12T07:04:15.401Z,62.05
2023-02-12T07:06:43.990Z,61.89
2023-02-12T07:09:13.596Z,61.85
2023-02-12T07:11:41.963Z,60.83
2023-02-12T07:14:16.059Z,60.85
2023-02-12T07:16:45.962Z,60.06
2023-02-12T07:19:18.196Z,58.81
2023-02-12T07:21:46.752Z,58.08
2023-02-12T07:24:16.140Z,57.89
2023-02-12T07:26:45.113Z,56.53
2023-02-12T07:29:13.565Z,57.14
2023-02-12T07:31:42.642Z,56.93
2023-02-12T07:34:12.728Z,56.26
2023-02-12T07:36:42.204Z,56.08
2023-02-12T07:39:13.652Z,56.00
2023-02-12T07:41:42.072Z,55.39
2023-02-12T07:44:14.106Z,54.63
2023-02-12T07:46:48.164Z,53.83
2023-02-12T07:49:20.749Z,52.99
2023-02-12T07:51:49.992Z,52.77
2023-02-12T07:54:18.881Z,52.63
2023-02-12T07:56:47.901Z,52.02
2023-02-12T07:59:20.646Z,51.96
2023-02-12T08:01:52.090Z,51.09
2023-02-12T08:04:25.422Z,51.74
2023-02-12T08:06:56.278Z,50.62
2023-02-12T08:09:27.520Z,50.33
2023-02-12T08:11:56.059Z,50.60
2023-02-12T08:14:24.911Z,50.47
2023-02-12T08:16:53.810Z,49.75
2023-02-12T08:19:26.340Z,49.40
2023-02-12T08:21:56.727Z,49.15
2023-02-12T08:24:25.648Z,48.54
2023-02-12T08:26:54.764Z,47.49
2023-02-12T08:29:26.019Z,47.44
2023-02-12T08:31:58.759Z,47.51
2023-02-12T08:34:30.596Z,46.85
2023-02-12T08:36:59.713Z,46.87
2023-02-12T08:39:30.778Z,47.22
2023-02-12T08:42:01.381Z,46.84
2023-02-12T08:44:30.496Z,46.82
2023-02-12T08:46:59.007Z,45.59
2023-02-12T08:49:31.363Z,45.38
2023-02-12T08:52:02.559Z,45.44
2023-02-12T08:54:32.846Z,44.04
2023-02-12T08:57:03.228Z,44.47
2023-02-12T08:59:32.065Z,44.19
2023-02-12T09:02:00.942Z,44.50
2023-02-12T09:04:31.414Z,44.50
2023-02-12T09:07:00.034Z,44.50
2023-02-12T09:09:28.688Z,46.03
2023-02-12T09:11:57.117Z,43.46
2023-02-12T09:14:25.503Z,37.78
2023-02-12T09:16:54.920Z,30.90
2023-02-12T09:19:24.144Z,25.63
2023-02-12T09:21:56.318Z,22.32
2023-02-12T09:24:27.636Z,18.47
2023-02-12T09:26:56.493Z,17.69
2023-02-12T09:29:24.989Z,17.20
2023-02-12T09:31:53.919Z,16.14
2023-02-12T09:34:22.408Z,15.22
2023-02-12T09:36:50.908Z,14.05
2023-02-12T09:39:20.663Z,12.95
2023-02-12T09:42:22.527Z,12.81
2023-02-12T09:45:03.137Z,12.11
2023-02-12T09:47:39.564Z,11.44
2023-02-12T09:50:28.618Z,10.68
2023-02-12T09:52:59.391Z,10.67
2023-02-12T09:55:32.993Z,10.67
2023-02-12T09:58:08.683Z,10.62
2023-02-12T10:00:37.124Z,10.56
2023-02-12T10:03:14.268Z,10.12
2023-02-12T10:05:48.092Z,9.66
2023-02-12T10:08:50.500Z,9.33
2023-02-12T10:11:53.200Z,9.03
2023-02-12T10:14:52.018Z,8.64
2023-02-12T10:17:34.487Z,8.56
2023-02-12T10:20:40.393Z,8.91
2023-02-12T10:23:39.347Z,9.00
2023-02-12T10:26:19.494Z,8.88
2023-02-12T10:28:50.618Z,9.09
2023-02-12T10:31:30.242Z,8.66
2023-02-12T10:33:59.073Z,8.91
2023-02-12T10:36:43.063Z,9.65
2023-02-12T10:39:19.799Z,10.07
2023-02-12T10:42:09.559Z,10.66
2023-02-12T10:44:39.471Z,10.07
2023-02-12T10:47:08.689Z,10.50
2023-02-12T10:49:37.198Z,10.64
2023-02-12T10:52:20.086Z,10.04
2023-02-12T10:54:50.283Z,10.15
2023-02-12T10:57:25.933Z,9.69
2023-02-12T11:00:15.054Z,9.32
2023-02-12T11:03:07.102Z,8.66
2023-02-12T11:05:37.925Z,8.08
2023-02-12T11:08:08.408Z,8.14
2023-02-12T11:10:41.430Z,8.50
2023-02-12T11:13:26.213Z,8.57
2023-02-12T11:15:56.728Z,8.51
2023-02-12T11:18:28.484Z,8.37
2023-02-12T11:20:59.787Z,8.15
2023-02-12T11:23:30.957Z,9.44
2023-02-12T11:26:02.996Z,9.19
2023-02-12T11:28:32.950Z,9.02
2023-02-12T11:31:05.411Z,9.17
2023-02-12T11:33:36.238Z,9.49
2023-02-12T11:36:15.867Z,9.65
2023-02-12T11:38:54.480Z,9.31
2023-02-12T11:41:34.591Z,9.43
2023-02-12T11:44:10.092Z,9.31
2023-02-12T11:46:42.034Z,9.60
2023-02-12T11:49:20.345Z,9.98
2023-02-12T11:51:50.383Z,9.96
2023-02-12T11:54:25.552Z,10.06
2023-02-12T11:56:55.469Z,10.16
2023-02-12T11:59:36.122Z,9.73
2023-02-12T12:02:25.938Z,9.40
2023-02-12T12:05:04.480Z,9.32
2023-02-12T12:07:37.665Z,8.64
2023-02-12T12:10:14.851Z,9.13
2023-02-12T12:12:49.246Z,10.71
2023-02-12T12:15:55.592Z,12.42
2023-02-12T12:18:50.177Z,14.07
2023-02-12T12:21:26.990Z,16.44
2023-02-12T12:24:00.759Z,18.18
2023-02-12T12:26:34.471Z,19.97
2023-02-12T12:29:08.397Z,21.66
2023-02-12T12:31:41.539Z,23.31
2023-02-12T12:34:14.632Z,24.46
2023-02-12T12:37:26.028Z,25.75
2023-02-12T12:40:14.678Z,26.79
2023-02-12T12:43:11.372Z,28.08
2023-02-12T12:46:23.915Z,29.06
2023-02-12T12:49:35.893Z,30.00
2023-02-12T12:52:42.969Z,31.07
2023-02-12T12:56:03.386Z,32.28
2023-02-12T12:58:51.080Z,33.70
2023-02-12T13:01:48.828Z,34.63
2023-02-12T13:04:50.152Z,35.82
2023-02-12T13:07:34.742Z,36.62
2023-02-12T13:10:24.298Z,36.86
2023-02-12T13:13:19.678Z,37.62
2023-02-12T13:15:56.576Z,38.68
2023-02-12T13:18:48.568Z,38.22
2023-02-12T13:21:35.473Z,38.91
2023-02-12T13:24:12.225Z,39.23
2023-02-12T13:26:50.541Z,39.70
2023-02-12T13:29:22.666Z,39.92
2023-02-12T13:31:57.545Z,41.09
2023-02-12T13:34:30.748Z,41.88
2023-02-12T13:37:03.847Z,42.99
2023-02-12T13:39:37.381Z,43.79
2023-02-12T13:42:22.985Z,44.90
2023-02-12T13:44:59.600Z,45.17
2023-02-12T13:47:37.876Z,45.53
2023-02-12T13:50:25.454Z,46.03
2023-02-12T13:53:01.025Z,46.12
2023-02-12T13:55:34.906Z,46.12
2023-02-12T13:58:49.527Z,46.42
2023-02-12T14:01:47.115Z,47.00
2023-02-12T14:04:29.752Z,47.67
2023-02-12T14:07:02.768Z,48.23
2023-02-12T14:09:37.878Z,48.29
2023-02-12T14:12:09.979Z,49.02
2023-02-12T14:14:42.651Z,48.98
2023-02-12T14:17:53.010Z,49.35
2023-02-12T14:20:30.662Z,49.44
2023-02-12T14:23:26.840Z,49.86
2023-02-12T14:26:03.650Z,50.19
2023-02-12T14:28:45.569Z,50.48
2023-02-12T14:31:35.209Z,51.46
2023-02-12T14:34:50.059Z,52.36
2023-02-12T14:37:38.984Z,52.54
2023-02-12T14:40:42.862Z,52.93
2023-02-12T14:43:33.322Z,53.71
2023-02-12T14:46:45.162Z,54.36
2023-02-12T14:49:25.095Z,54.64
2023-02-12T14:51:59.676Z,55.52
2023-02-12T14:54:34.060Z,55.48
2023-02-12T14:57:08.268Z,55.38
2023-02-12T14:59:42.438Z,56.02
2023-02-12T15:02:19.839Z,56.73
2023-02-12T15:04:48.833Z,56.34
2023-02-12T15:07:29.905Z,57.08
2023-02-12T15:10:07.546Z,56.99
2023-02-12T15:12:40.912Z,57.69
2023-02-12T15:15:22.540Z,57.62
2023-02-12T15:17:59.724Z,57.65
2023-02-12T15:20:36.474Z,58.37
2023-02-12T15:23:39.262Z,58.31
2023-02-12T15:26:14.801Z,59.36
2023-02-12T15:28:44.421Z,59.18
2023-02-12T15:31:18.094Z,59.15
2023-02-12T15:33:50.080Z,59.71
2023-02-12T15:36:22.371Z,59.69
2023-02-12T15:38:55.663Z,60.27
2023-02-12T15:41:37.185Z,61.15
2023-02-12T15:44:22.045Z,60.19
2023-02-12T15:47:13.162Z,60.93
2023-02-12T15:49:44.088Z,61.90
2023-02-12T15:52:20.793Z,61.55
2023-02-12T15:54:51.334Z,62.20
2023-02-12T15:57:24.276Z,62.86
2023-02-12T15:59:54.046Z,62.91
2023-02-12T16:02:28.453Z,62.08
2023-02-12T16:04:57.955Z,63.10
2023-02-12T16:07:27.700Z,63.79
2023-02-12T16:09:58.424Z,63.87
2023-02-12T16:12:32.492Z,63.92
2023-02-12T16:15:01.864Z,64.45
2023-02-12T16:17:33.183Z,64.34
2023-02-12T16:20:06.593Z,64.19
2023-02-12T16:22:39.030Z,64.93
2023-02-12T16:25:18.512Z,64.61
2023-02-12T16:27:59.040Z,65.32
2023-02-12T16:30:34.470Z,64.93
2023-02-12T16:33:03.814Z,65.28
2023-02-12T16:35:34.767Z,65.55
2023-02-12T16:38:25.504Z,65.63
2023-02-12T16:41:34.293Z,65.61
2023-02-12T16:44:31.590Z,65.93
2023-02-12T16:47:02.826Z,66.21
2023-02-12T16:49:31.343Z,66.68
2023-02-12T16:52:35.994Z,67.18
2023-02-12T16:55:05.048Z,66.61
2023-02-12T16:57:34.898Z,66.58
2023-02-12T17:00:03.307Z,67.27
2023-02-12T17:02:31.890Z,67.26
2023-02-12T17:05:01.829Z,67.33
2023-02-12T17:07:31.174Z,67.36
2023-02-12T17:09:59.627Z,67.05
2023-02-12T17:12:29.087Z,67.43
2023-02-12T17:14:58.907Z,67.78
2023-02-12T17:17:27.396Z,68.52
2023-02-12T17:19:55.832Z,68.25
2023-02-12T17:22:27.440Z,68.54
2023-02-12T17:24:55.900Z,68.29
2023-02-12T17:27:24.374Z,68.04
2023-02-12T17:29:52.804Z,68.23
2023-02-12T17:32:24.592Z,68.39
2023-02-12T17:34:53.197Z,69.23
2023-02-12T17:37:22.337Z,68.58
2023-02-12T17:39:50.710Z,68.82
2023-02-12T17:42:19.411Z,69.40
2023-02-12T17:44:47.841Z,69.61
2023-02-12T17:47:16.297Z,69.81
2023-02-12T17:49:46.283Z,69.84
2023-02-12T17:52:14.720Z,69.72
2023-02-12T17:54:46.704Z,70.61
2023-02-12T17:57:15.887Z,70.03
2023-02-12T17:59:44.497Z,70.63
2023-02-12T18:02:13.347Z,70.72
2023-02-12T18:04:41.991Z,70.77
2023-02-12T18:07:11.818Z,70.25
2023-02-12T18:09:40.320Z,70.36
2023-02-12T18:12:09.630Z,70.68
2023-02-12T18:14:38.022Z,70.30
2023-02-12T18:17:06.434Z,71.09
2023-02-12T18:19:35.167Z,70.67
2023-02-12T18:22:03.669Z,70.62
2023-02-12T18:24:35.091Z,70.91
2023-02-12T18:27:03.491Z,70.79
2023-02-12T18:29:31.972Z,71.29
2023-02-12T18:32:00.379Z,71.13
2023-02-12T18:34:28.898Z,71.66
2023-02-12T18:36:57.738Z,71.85
2023-02-12T18:39:26.182Z,71.63
2023-02-12T18:41:55.928Z,71.75
2023-02-12T18:44:24.394Z,71.66
2023-02-12T18:46:52.722Z,71.41
2023-02-12T18:49:21.093Z,72.08
2023-02-12T18:51:49.620Z,71.10
2023-02-12T18:54:19.478Z,71.86
2023-02-12T18:56:50.865Z,72.09
2023-02-12T18:59:21.814Z,72.35
2023-02-12T19:01:51.812Z,71.75
2023-02-12T19:04:23.827Z,72.09
2023-02-12T19:06:55.628Z,72.71
2023-02-12T19:09:27.896Z,71.92
2023-02-12T19:12:00.493Z,72.48
2023-02-12T19:14:30.699Z,72.39
2023-02-12T19:16:59.219Z,72.68
2023-02-12T19:19:28.396Z,72.18
2023-02-12T19:21:56.959Z,72.93
2023-02-12T19:24:27.216Z,72.68
2023-02-12T19:26:58.935Z,72.08
2023-02-12T19:29:28.023Z,72.78
2023-02-12T19:31:58.055Z,73.03
2023-02-12T19:34:27.355Z,73.29
2023-02-12T19:36:55.953Z,73.10
2023-02-12T19:39:26.084Z,73.28
2023-02-12T19:41:56.255Z,72.99
2023-02-12T19:44:26.674Z,73.54
2023-02-12T19:46:55.183Z,74.09
2023-02-12T19:49:28.564Z,73.34
2023-02-12T19:51:57.169Z,73.52
2023-02-12T19:54:26.328Z,73.32
2023-02-12T19:56:55.881Z,73.88
2023-02-12T19:59:26.913Z,73.36
2023-02-12T20:01:56.546Z,73.67
2023-02-12T20:04:26.885Z,74.49
2023-02-12T20:06:55.413Z,73.91
2023-02-12T20:09:24.589Z,74.67
2023-02-12T20:11:53.276Z,74.48
2023-02-12T20:14:22.878Z,74.50
2023-02-12T20:16:52.215Z,74.25
2023-02-12T20:19:27.803Z,75.23
2023-02-12T20:21:57.638Z,74.84
2023-02-12T20:24:28.538Z,74.58
2023-02-12T20:26:59.451Z,74.67
2023-02-12T20:29:28.909Z,74.98
2023-02-12T20:31:57.712Z,74.48
2023-02-12T20:34:27.831Z,75.18
2023-02-12T20:36:56.412Z,75.42
2023-02-12T20:39:25.154Z,74.56
2023-02-12T20:41:53.826Z,75.20
2023-02-12T20:44:23.211Z,75.20
2023-02-12T20:46:57.256Z,75.01
2023-02-12T20:49:27.702Z,75.03
2023-02-12T20:51:56.649Z,75.16
2023-02-12T20:54:25.973Z,75.59
2023-02-12T20:56:55.226Z,76.24
2023-02-12T20:59:23.753Z,75.39
2023-02-12T21:01:52.131Z,76.18
2023-02-12T21:04:21.283Z,76.01
2023-02-12T21:06:51.008Z,76.33
2023-02-12T21:09:20.405Z,76.94
2023-02-12T21:11:49.214Z,76.30
2023-02-12T21:14:22.354Z,76.52
2023-02-12T21:16:52.246Z,77.54
2023-02-12T21:19:21.322Z,77.66
2023-02-12T21:21:51.649Z,77.25
2023-02-12T21:24:22.579Z,78.19
2023-02-12T21:26:51.817Z,78.83
2023-02-12T21:29:21.666Z,78.80
2023-02-12T21:31:52.242Z,79.42
2023-02-12T21:34:24.569Z,79.37
2023-02-12T21:36:56.662Z,79.90
2023-02-12T21:39:28.019Z,79.18
2023-02-12T21:42:00.123Z,79.90
2023-02-12T21:44:29.690Z,80.24
2023-02-12T21:46:59.005Z,80.87
2023-02-12T21:49:28.200Z,81.26
2023-02-12T21:52:02.228Z,81.49
2023-02-12T21:54:32.236Z,81.13
2023-02-12T21:57:01.778Z,81.23
2023-02-12T21:59:32.346Z,81.88
2023-02-12T22:02:01.863Z,82.40
2023-02-12T22:04:30.674Z,81.78
2023-02-12T22:07:03.304Z,82.82
2023-02-12T22:09:32.214Z,83.00
2023-02-12T22:12:00.548Z,83.08
2023-02-12T22:14:28.916Z,83.15
2023-02-12T22:16:57.560Z,82.27
2023-02-12T22:19:26.073Z,83.30
2023-02-12T22:21:54.407Z,83.11
2023-02-12T22:24:24.363Z,82.66
2023-02-12T22:26:52.783Z,82.92
2023-02-12T22:29:22.892Z,82.39
2023-02-12T22:31:52.009Z,82.75
2023-02-12T22:34:20.711Z,82.44
2023-02-12T22:36:49.238Z,82.83
2023-02-12T22:39:18.648Z,83.47
2023-02-12T22:41:48.396Z,82.99
2023-02-12T22:44:20.707Z,83.49
2023-02-12T22:46:50.199Z,83.54
2023-02-12T22:49:18.701Z,83.82
2023-02-12T22:51:47.160Z,83.15
2023-02-12T22:54:17.970Z,83.04
2023-02-12T22:56:51.268Z,83.36
2023-02-12T22:59:20.296Z,84.43
2023-02-12T23:01:48.712Z,83.91
2023-02-12T23:04:19.507Z,84.31
2023-02-12T23:06:48.037Z,84.05
2023-02-12T23:09:19.113Z,83.63
2023-02-12T23:11:49.696Z,83.67
2023-02-12T23:14:18.756Z,83.79
2023-02-12T23:16:47.469Z,84.44
2023-02-12T23:19:16.846Z,84.23
2023-02-12T23:21:45.464Z,84.56
2023-02-12T23:24:16.186Z,84.15
2023-02-12T23:26:44.850Z,84.47
2023-02-12T23:29:14.642Z,84.66
2023-02-12T23:31:43.137Z,83.98
2023-02-12T23:34:11.912Z,84.40
2023-02-12T23:36:40.252Z,83.64
2023-02-12T23:39:09.608Z,84.16
2023-02-12T23:41:37.987Z,83.36
2023-02-12T23:44:06.794Z,84.21
2023-02-12T23:46:36.632Z,83.99
2023-02-12T23:49:05.507Z,83.48
2023-02-12T23:51:34.411Z,83.55
2023-02-12T23:54:03.066Z,83.34
2023-02-12T23:56:31.537Z,83.64
2023-02-12T23:58:59.902Z,84.47
